Latest Weather Observations for Batchelor

IDD60801

Issued at 5:01 pm CST Tuesday 24 May 2016 (issued every 30 minutes, with the page automatically refreshed every 10 minutes)

About weather observations | Map of weather stations | Latest weather observations for NT | Other Formats
Station Details ID: 014272 Name: BATCHELOR AIRPORT Lat: -13.05 Lon: 131.03 Height: 104.0 m
Data from the previous 72 hours. | See also: Recent months at Batchelor
Date/Time
CST
Temp
°C
App
Temp
°C
Dew
Point
Rel
Hum
%
Delta-T
°C
Wind Press
QNH
hPa
Press
MSL
hPa
Rain
since 9 am
mm
Dir
 
Spd
km/h
Gust
km/h
Spd
kts
Gust
kts
24/05:00pm 31.4 35.4 21.3 55 6.8 WSW 2 4 1 2 1010.2 1009.6 0.0
24/04:30pm 31.2 35.2 21.4 56 6.6 WSW 2 4 1 2 1010.3 1009.7 0.0
24/04:00pm 31.4 34.7 20.0 50 7.6 NW 2 6 1 3 1010.2 1009.6 0.0
24/03:30pm 31.9 34.5 19.2 47 8.3 WSW 4 4 2 2 1010.3 1009.7 0.0
24/03:00pm 32.7 35.0 18.5 43 9.3 ENE 4 11 2 6 1010.4 1009.8 0.0
24/02:30pm 33.2 35.8 19.3 44 9.2 ENE 4 9 2 5 1010.7 1010.1 0.0
24/02:00pm 32.3 35.0 20.2 48 8.1 ESE 6 11 3 6 1011.3 1010.8 0.0
24/01:30pm 32.1 35.1 21.3 53 7.3 N 7 9 4 5 1011.8 1011.3 0.0
24/01:00pm 32.2 35.3 21.4 53 7.3 NNW 7 17 4 9 1012.5 1012.0 0.0
24/12:30pm 32.0 35.0 21.2 52 7.3 NNE 7 13 4 7 1013.1 1012.5 0.0
24/12:00pm 31.0 34.9 21.8 58 6.2 NE 4 7 2 4 1013.5 1012.9 0.0
24/11:30am 31.0 34.6 22.0 58 6.1 ENE 6 13 3 7 1013.9 1013.3 0.0
24/11:00am 29.8 33.4 22.3 64 5.1 NNE 7 13 4 7 1014.3 1013.7 0.0
24/10:30am 29.8 34.6 23.5 69 4.4 NNE 4 7 2 4 1014.4 1013.8 0.0
24/10:00am 28.6 33.2 23.1 72 3.8 NNE 4 9 2 5 1014.4 1013.8 0.0
24/09:30am 28.4 33.0 23.1 73 3.6 NNE 4 7 2 4 1014.4 1013.8 0.0
24/09:00am 27.5 31.6 22.9 76 3.1 NNE 6 7 3 4 1014.2 1013.6 0.0
24/08:30am 26.4 30.6 23.1 82 2.3 NNE 6 7 3 4 1014.0 1013.4 0.0
24/08:00am 25.7 31.6 24.1 91 1.1 CALM 0 0 0 0 1013.7 1013.1 0.0
24/07:30am 24.5 30.1 23.6 95 0.6 CALM 0 0 0 0 1013.2 1012.6 0.0
24/07:00am 24.5 29.5 23.8 96 0.5 N 4 7 2 4 1013.1 1012.5 0.0
24/06:30am 24.3 29.7 23.8 97 0.3 NNW 2 4 1 2 1012.9 1012.3 0.0
24/06:00am 23.6 28.5 23.1 97 0.3 NNW 2 6 1 3 1012.5 1012.0 0.0
24/05:30am 22.9 27.6 21.9 94 0.7 CALM 0 0 0 0 1012.2 1011.7 0.0
24/05:00am 22.9 27.5 21.7 93 0.8 CALM 0 0 0 0 1012.1 1011.6 0.0
24/04:30am 23.4 28.5 22.6 95 0.5 CALM 0 0 0 0 1011.8 1011.3 0.0
24/04:00am 23.4 28.2 22.2 93 0.8 CALM 0 0 0 0 1011.7 1011.2 0.0
24/03:30am 23.6 28.5 22.4 93 0.8 CALM 0 0 0 0 1011.9 1011.4 0.0
24/03:00am 24.0 29.2 22.8 93 0.8 CALM 0 0 0 0 1012.0 1011.5 0.0
24/02:30am 24.0 28.9 22.3 90 1.1 CALM 0 0 0 0 1012.2 1011.7 0.0
24/02:00am 24.5 29.7 22.9 91 1.1 CALM 0 0 0 0 1012.5 1012.0 0.0
24/01:30am 25.0 29.6 23.2 90 1.2 NNW 4 6 2 3 1012.5 1012.0 0.0
24/01:00am 25.3 29.7 23.4 89 1.3 NNW 6 7 3 4 1012.6 1012.1 0.0
24/12:30am 25.3 29.4 23.0 87 1.6 NNW 6 7 3 4 1012.8 1012.2 0.0
24/12:00am 25.8 30.0 23.1 85 1.8 NW 6 7 3 4 1012.8 1012.2 0.0
 
Date/Time
CST
Temp
°C
App
Temp
°C
Dew
Point
Rel
Hum
%
Delta-T
°C
Wind Press
QNH
hPa
Press
MSL
hPa
Rain
since 9 am
mm
Dir
 
Spd
km/h
Gust
km/h
Spd
kts
Gust
kts
23/11:30pm 26.0 30.2 23.1 84 2.0 NW 6 7 3 4 1012.8 1012.2 0.0
23/11:00pm 26.1 30.2 23.0 83 2.1 NW 6 7 3 4 1013.0 1012.4 0.0
23/10:30pm 26.5 30.3 22.8 80 2.5 NW 7 11 4 6 1012.9 1012.3 0.0
23/10:00pm 26.5 30.4 22.6 79 2.6 NNW 6 7 3 4 1013.0 1012.4 0.0
23/09:30pm 27.1 31.4 22.7 77 3.0 NW 4 7 2 4 1012.6 1012.1 0.0
23/09:00pm 27.4 31.0 22.4 74 3.4 NNW 7 9 4 5 1012.2 1011.7 0.0
23/08:30pm 27.7 31.3 22.4 73 3.6 NW 7 11 4 6 1011.7 1011.2 0.0
23/08:00pm 27.8 30.5 21.3 67 4.3 NNW 9 17 5 9 1011.2 1010.7 0.0
23/07:30pm 26.8 31.3 21.6 73 3.5 CALM 0 0 0 0 1010.5 1009.9 0.0
23/07:00pm 27.4 31.5 20.7 67 4.4 CALM 0 0 0 0 1010.2 1009.6 0.0
23/06:30pm 29.1 32.6 20.3 59 5.8 S 2 4 1 2 1009.9 1009.3 0.0
23/06:00pm 31.8 34.9 19.4 47 8.2 S 2 4 1 2 1009.8 1009.2 0.0
23/05:30pm 33.8 35.6 17.5 38 10.5 ESE 4 6 2 3 1009.5 1008.9 0.0
23/05:00pm 34.5 35.7 17.3 36 11.1 ESE 7 9 4 5 1009.2 1008.6 0.0
23/04:30pm 34.8 36.1 16.1 32 11.9 SSW 4 6 2 3 1008.9 1008.3 0.0
23/04:00pm 35.1 35.9 16.4 32 11.9 E 7 13 4 7 1008.7 1008.1 0.0
23/03:30pm 33.1 34.8 18.1 41 9.7 SE 6 9 3 5 1009.0 1008.4 0.0
23/03:00pm 35.3 37.4 18.0 36 11.3 S 4 6 2 3 1009.2 1008.6 0.0
23/02:30pm 34.7 35.9 17.4 35 11.2 E 7 13 4 7 1009.7 1009.1 0.0
23/02:00pm 34.5 36.2 18.5 38 10.5 ESE 7 17 4 9 1010.0 1009.4 0.0
23/01:30pm 33.8 34.8 18.7 40 9.9 SE 11 19 6 10 1010.7 1010.1 0.0
23/01:00pm 33.6 35.7 19.3 43 9.4 SE 7 15 4 8 1011.5 1011.0 0.0
23/12:30pm 33.1 34.2 19.6 45 8.9 SE 13 22 7 12 1012.2 1011.7 0.0
23/12:00pm 32.7 34.7 19.9 46 8.5 ESE 9 20 5 11 1012.8 1012.2 0.0
23/11:30am 32.0 33.8 21.2 52 7.3 ESE 13 20 7 11 1013.3 1012.7 0.0
23/11:00am 31.2 35.0 22.8 61 5.8 S 7 13 4 7 1013.6 1013.0 0.0
23/10:30am 29.7 32.4 22.2 64 5.1 SSE 11 17 6 9 1013.9 1013.3 0.0
23/10:00am 29.9 33.6 22.6 65 5.0 S 7 15 4 8 1014.0 1013.4 0.0
23/09:30am 28.6 32.3 22.6 70 4.1 S 7 13 4 7 1014.2 1013.6 0.0
23/09:00am 27.0 31.2 23.5 81 2.4 S 7 13 4 7 1014.0 1013.4 0.0
23/08:30am 25.7 30.0 23.6 88 1.4 S 7 9 4 5 1013.9 1013.3 0.0
23/08:00am 24.7 29.5 23.5 93 0.8 SSW 4 6 2 3 1013.9 1013.3 0.0
23/07:30am 23.9 28.3 23.4 97 0.3 SSW 6 7 3 4 1013.7 1013.1 0.0
23/07:00am 23.4 27.9 22.9 97 0.3 W 4 6 2 3 1013.3 1012.7 0.0
23/06:30am 23.2 27.2 22.7 97 0.3 W 6 7 3 4 1013.0 1012.4 0.0
23/06:00am 22.4 26.4 21.4 94 0.7 W 2 4 1 2 1012.8 1012.2 0.0
23/05:30am 22.8 26.9 21.6 93 0.8 W 2 4 1 2 1012.6 1012.1 0.0
23/05:00am 23.1 27.9 22.1 94 0.7 CALM 0 0 0 0 1012.5 1012.0 0.0
23/04:30am 23.4 28.2 22.2 93 0.8 CALM 0 0 0 0 1012.5 1012.0 0.0
23/04:00am 23.6 28.7 22.6 94 0.7 CALM 0 2 0 1 1012.4 1011.9 0.0
23/03:30am 23.8 28.9 22.6 93 0.8 CALM 0 0 0 0 1012.6 1012.1 0.0
23/03:00am 23.8 28.5 22.6 93 0.8 W 2 4 1 2 1012.8 1012.2 0.0
23/02:30am 23.8 28.4 22.4 92 0.9 W 2 2 1 1 1013.0 1012.4 0.0
23/02:00am 23.9 28.4 22.3 91 1.1 W 2 2 1 1 1013.0 1012.4 0.0
23/01:30am 24.3 28.6 22.6 90 1.1 W 4 4 2 2 1013.0 1012.4 0.0
23/01:00am 24.6 28.9 22.7 89 1.3 W 4 6 2 3 1012.9 1012.3 0.0
23/12:30am 24.9 29.7 22.8 88 1.4 W 2 4 1 2 1013.1 1012.5 0.0
23/12:00am 24.8 29.1 22.7 88 1.4 W 4 7 2 4 1013.1 1012.5 0.0
 
Date/Time
CST
Temp
°C
App
Temp
°C
Dew
Point
Rel
Hum
%
Delta-T
°C
Wind Press
QNH
hPa
Press
MSL
hPa
Rain
since 9 am
mm
Dir
 
Spd
km/h
Gust
km/h
Spd
kts
Gust
kts
22/11:30pm 24.8 29.9 22.7 88 1.4 CALM 0 0 0 0 1013.2 1012.6 0.0
22/11:00pm 25.1 30.3 22.8 87 1.6 CALM 0 0 0 0 1013.3 1012.7 0.0
22/10:30pm 25.4 30.6 22.9 86 1.7 CALM 0 0 0 0 1013.2 1012.6 0.0
22/10:00pm 26.0 30.8 22.9 83 2.1 W 2 4 1 2 1013.1 1012.5 0.0
22/09:30pm 26.5 31.1 23.2 82 2.3 W 4 6 2 3 1013.0 1012.4 0.0
22/09:00pm 26.7 30.8 23.0 80 2.5 NW 6 7 3 4 1012.9 1012.3 0.0
22/08:30pm 27.4 31.5 23.2 78 2.9 WNW 7 13 4 7 1012.3 1011.8 0.0
22/08:00pm 28.1 32.2 23.2 74 3.4 WNW 7 11 4 6 1011.8 1011.3 0.0
22/07:30pm 28.7 32.3 22.4 68 4.3 WNW 7 13 4 7 1011.4 1010.9 0.0
22/07:00pm 28.3 33.5 22.8 72 3.8 CALM 0 0 0 0 1011.0 1010.5 0.0
22/06:30pm 29.2 33.9 21.9 64 4.9 CALM 0 2 0 1 1010.7 1010.1 0.0
22/06:00pm 31.2 35.2 21.4 56 6.6 N 2 4 1 2 1010.5 1009.9 0.0
22/05:30pm 32.6 35.3 19.5 46 8.7 N 4 6 2 3 1010.3 1009.7 0.0
22/05:00pm 33.1 36.3 20.6 47 8.4 NNE 4 6 2 3 1010.2 1009.6 0.0
22/04:30pm 31.9 35.0 20.2 50 7.8 SSE 4 4 2 2 1010.1 1009.5 0.0
22/04:00pm 33.6 35.5 18.5 40 9.9 NE 6 7 3 4 1010.3 1009.7 0.0
22/03:30pm 33.5 36.8 19.9 44 9.1 S 2 6 1 3 1010.5 1009.9 0.0
22/03:00pm 33.3 35.2 18.6 41 9.6 ENE 6 11 3 6 1010.7 1010.1 0.0
22/02:30pm 32.6 34.8 19.1 44 8.9 E 6 9 3 5 1011.0 1010.5 0.0
22/02:00pm 31.7 33.9 19.7 49 7.9 ESE 7 13 4 7 1011.5 1011.0 0.0
22/01:30pm 31.9 34.7 20.8 51 7.4 SE 7 11 4 6 1012.0 1011.5 0.0
22/01:00pm 32.2 35.3 21.1 52 7.5 S 6 9 3 5 1012.6 1012.1 0.0
22/12:30pm 32.3 35.6 21.5 53 7.3 ESE 6 9 3 5 1013.3 1012.7 0.0
22/12:00pm 32.0 35.8 22.4 57 6.6 NE 6 9 3 5 1013.7 1013.1 0.0
22/11:30am 31.2 35.0 21.7 57 6.4 NNE 4 9 2 5 1014.1 1013.5 0.0
22/11:00am 30.5 34.3 21.6 59 6.0 NE 4 7 2 4 1014.5 1013.9 0.0
22/10:30am 29.8 33.2 21.7 61 5.5 E 6 9 3 5 1014.7 1014.1 0.0
22/10:00am 29.3 32.0 21.3 62 5.4 ENE 9 13 5 7 1014.6 1014.0 0.0
22/09:30am 28.6 31.4 21.6 66 4.7 E 9 13 5 7 1014.7 1014.1 0.0
22/09:00am 27.4 31.1 22.6 75 3.3 E 7 9 4 5 1014.7 1014.1 0.0
22/08:30am 25.8 30.4 23.1 85 1.8 NE 4 7 2 4 1014.6 1014.0 0.0
22/08:00am 25.0 30.5 23.4 91 1.1 CALM 0 0 0 0 1014.4 1013.8 0.0
22/07:30am 24.0 28.9 23.1 95 0.6 NE 2 6 1 3 1014.0 1013.4 0.0
22/07:00am 23.5 28.2 22.7 95 0.5 NE 2 7 1 4 1013.3 1012.7 0.0
22/06:30am 23.4 28.1 22.0 92 0.9 CALM 0 0 0 0 1012.9 1012.3 0.0
22/06:00am 23.8 28.7 22.4 92 0.9 CALM 0 2 0 1 1012.6 1012.1 0.0
22/05:30am 24.2 28.5 22.6 91 1.1 NE 4 4 2 2 1012.4 1011.9 0.0
22/05:00am 24.9 29.4 23.0 89 1.3 NE 4 4 2 2 1012.2 1011.7 0.0
22/04:30am 25.0 29.0 23.1 89 1.3 E 7 9 4 5 1012.4 1011.9 0.0
22/04:00am 24.7 29.9 22.8 89 1.3 CALM 0 0 0 0 1012.3 1011.8 0.0
22/03:30am 24.8 29.9 22.7 88 1.4 CALM 0 2 0 1 1012.1 1011.6 0.0
22/03:00am 24.9 30.2 23.1 90 1.2 CALM 0 0 0 0 1012.3 1011.8 0.0
22/02:30am 24.7 29.9 22.8 89 1.3 CALM 0 0 0 0 1012.2 1011.7 0.0
22/02:00am 25.3 30.5 22.8 86 1.7 CALM 0 0 0 0 1012.5 1012.0 0.0
22/01:30am 25.4 30.5 22.7 85 1.8 CALM 0 0 0 0 1012.6 1012.1 0.0
22/01:00am 26.0 30.5 22.9 83 2.1 NNE 4 7 2 4 1012.9 1012.3 0.0
22/12:30am 26.2 30.3 22.9 82 2.2 NNW 6 11 3 6 1013.2 1012.6 0.0
22/12:00am 26.6 31.1 22.9 80 2.5 SW 4 6 2 3 1013.0 1012.4 0.0
 
Date/Time
CST
Temp
°C
App
Temp
°C
Dew
Point
Rel
Hum
%
Delta-T
°C
Wind Press
QNH
hPa
Press
MSL
hPa
Rain
since 9 am
mm
Dir
 
Spd
km/h
Gust
km/h
Spd
kts
Gust
kts
21/11:30pm 26.6 31.2 23.1 81 2.4 WSW 4 9 2 5 1012.9 1012.3 0.0
21/11:00pm 26.3 30.8 23.0 82 2.2 WSW 4 7 2 4 1012.8 1012.2 0.0
21/10:30pm 26.4 30.9 22.9 81 2.4 WSW 4 6 2 3 1012.6 1012.1 0.0
21/10:00pm 26.5 30.9 22.8 80 2.5 W 4 6 2 3 1012.5 1012.0 0.0
21/09:30pm 26.7 31.1 22.8 79 2.7 W 4 7 2 4 1012.5 1012.0 0.0
21/09:00pm 27.2 31.2 22.8 77 3.0 WNW 6 7 3 4 1012.4 1011.9 0.0
21/08:30pm 27.4 30.9 22.1 73 3.6 WNW 7 13 4 7 1012.0 1011.5 0.0
21/08:00pm 28.1 30.9 20.9 65 4.8 NW 7 13 4 7 1011.5 1011.0 0.0
21/07:30pm 29.4 32.2 19.7 56 6.4 NNE 4 7 2 4 1011.0 1010.5 0.0
21/07:00pm 28.5 33.4 22.3 69 4.2 CALM 0 0 0 0 1010.5 1009.9 0.0
21/06:30pm 29.3 33.3 20.5 59 5.8 CALM 0 0 0 0 1010.3 1009.7 0.0
21/06:00pm 31.7 36.0 21.2 53 7.1 CALM 0 0 0 0 1009.9 1009.3 0.0
21/05:30pm 32.9 34.4 17.5 39 9.9 ESE 6 6 3 3 1009.5 1008.9 0.0

Other Formats:

Comma delimited format used in spreadsheet applications
http://www.bom.gov.au/fwo/IDD60801/IDD60801.94125.axf

JavaScript Object Notation format (JSON) in row-major order
http://www.bom.gov.au/fwo/IDD60801/IDD60801.94125.json